Time;durP1;ratioP1;P1;durP2;ratioP2;P2;SDS_P1;SDS_P2;PMS_P1;PMS_P2;Temp;Humidity;BMP_temperature;BMP_pressure;BME280_temperature;BME280_humidity;BME280_pressure;Samples;Min_cycle;Max_cycle;Signal;HPM_P1;HPM_P2
2023/10/28 00:00:07;;;;;;;2.60;0.90;;;;;;;12.07;82.64;98945.56;4171067;28;20060;-69
2023/10/28 00:02:10;;;;;;;2.00;1.10;;;;;;;11.94;82.96;98938.81;4173363;28;20045;-68
2023/10/28 00:04:23;;;;;;;3.83;1.25;;;;;;;12.01;83.15;98940.44;4173074;28;20033;-68
2023/10/28 00:06:26;;;;;;;4.95;1.17;;;;;;;11.96;83.20;98942.25;4171162;28;20065;-68
2023/10/28 00:08:29;;;;;;;3.83;1.55;;;;;;;12.06;82.90;98943.81;4163058;28;20512;-69
2023/10/28 00:10:33;;;;;;;5.55;1.45;;;;;;;11.97;83.38;98936.16;4165675;28;20124;-68
2023/10/28 00:12:41;;;;;;;2.25;1.30;;;;;;;11.86;83.64;98936.31;4163764;28;20377;-68
2023/10/28 00:14:43;;;;;;;4.07;1.30;;;;;;;11.83;84.29;98942.44;4163535;28;20038;-68
2023/10/28 00:16:49;;;;;;;2.28;1.10;;;;;;;11.67;84.76;98953.97;4162379;28;20523;-68
2023/10/28 00:18:52;;;;;;;6.28;1.25;;;;;;;11.64;85.07;98946.19;4165628;28;20083;-69
2023/10/28 00:20:56;;;;;;;4.30;2.08;;;;;;;11.62;85.07;98934.94;4163734;28;20057;-68
2023/10/28 00:22:59;;;;;;;3.35;1.52;;;;;;;11.66;85.10;98939.22;4163753;28;20038;-69
2023/10/28 00:25:02;;;;;;;4.60;1.55;;;;;;;11.65;85.27;98948.78;4167242;28;20033;-69
2023/10/28 00:27:05;;;;;;;6.50;1.50;;;;;;;11.66;84.91;98949.63;4173487;28;20064;-69
2023/10/28 00:29:12;;;;;;;4.25;1.27;;;;;;;11.72;85.67;98952.13;4172926;28;20610;-69
2023/10/28 00:31:25;;;;;;;2.15;1.10;;;;;;;11.63;85.56;98949.69;4165531;28;20044;-68
2023/10/28 00:33:34;;;;;;;2.55;1.05;;;;;;;11.51;85.50;98951.56;4173543;28;20041;-68
2023/10/28 00:35:36;;;;;;;2.20;0.90;;;;;;;11.45;85.71;98948.22;4164266;28;20033;-69
2023/10/28 00:37:44;;;;;;;1.42;0.88;;;;;;;11.61;85.26;98961.84;4149674;28;20092;-68
2023/10/28 00:39:47;;;;;;;3.33;1.40;;;;;;;11.53;85.62;98955.03;4174258;28;20220;-68
2023/10/28 00:41:49;;;;;;;2.13;1.00;;;;;;;11.60;85.81;98955.78;4167781;28;20088;-68
2023/10/28 00:43:52;;;;;;;2.08;0.82;;;;;;;11.49;86.13;98963.75;4166297;28;20026;-68
2023/10/28 00:45:59;;;;;;;2.55;0.90;;;;;;;11.55;86.39;98964.53;4166932;28;20041;-69
2023/10/28 00:48:02;;;;;;;2.85;1.00;;;;;;;11.55;86.51;98964.53;4169513;28;20041;-68
2023/10/28 00:50:30;;;;;;;0.98;0.85;;;;;;;11.60;85.91;98973.16;4165670;28;20065;-68
2023/10/28 00:52:34;;;;;;;1.10;0.70;;;;;;;11.50;86.25;98969.81;4172546;28;20127;-69
2023/10/28 00:54:37;;;;;;;1.00;0.77;;;;;;;11.60;85.59;98975.75;4173343;28;20033;-68
2023/10/28 00:56:40;;;;;;;1.42;0.77;;;;;;;11.65;85.80;98971.31;4176213;28;20359;-69
2023/10/28 00:58:46;;;;;;;1.33;0.80;;;;;;;11.43;86.56;98974.22;4158758;28;20450;-69
2023/10/28 01:00:48;;;;;;;;;;;;;;;11.32;86.94;98981.34;4175808;28;20403;-69
2023/10/28 01:02:53;;;;;;;6.25;1.00;;;;;;;11.38;86.63;98989.03;4175656;28;19921;-69
2023/10/28 01:04:57;;;;;;;0.52;0.50;;;;;;;11.26;86.87;98994.41;4179761;28;20057;-69
2023/10/28 01:07:00;;;;;;;4.30;1.17;;;;;;;11.26;87.88;98997.88;4168137;28;20040;-69
2023/10/28 01:09:05;;;;;;;1.27;0.68;;;;;;;11.30;87.55;98993.47;4178999;28;20060;-69
2023/10/28 01:11:07;;;;;;;0.75;0.68;;;;;;;11.37;87.02;98994.28;4174466;28;20068;-69
2023/10/28 01:13:10;;;;;;;3.17;0.93;;;;;;;11.31;87.12;98992.59;4171691;28;20048;-68
2023/10/28 01:15:12;;;;;;;0.77;0.70;;;;;;;11.22;87.28;98996.19;4176562;28;20041;-68
2023/10/28 01:17:16;;;;;;;2.00;0.82;;;;;;;11.33;87.01;99002.13;4174514;28;20036;-68
2023/10/28 01:19:21;;;;;;;1.65;0.82;;;;;;;11.28;87.34;99003.06;4179165;28;20060;-69
2023/10/28 01:21:25;;;;;;;1.45;0.77;;;;;;;11.22;87.33;99001.38;4177960;28;20091;-69
2023/10/28 01:23:28;;;;;;;2.55;0.80;;;;;;;11.20;87.38;99007.47;4177949;28;20033;-69
2023/10/28 01:25:31;;;;;;;1.52;0.68;;;;;;;11.21;88.05;99006.59;4177743;28;20025;-69
2023/10/28 01:27:34;;;;;;;1.50;0.68;;;;;;;11.12;87.81;99003.22;4170537;28;20490;-69
2023/10/28 01:29:38;;;;;;;2.88;0.82;;;;;;;11.14;87.53;99014.50;4177481;28;20037;-68
2023/10/28 01:31:40;;;;;;;1.58;0.60;;;;;;;11.17;87.28;99005.78;4165788;28;20064;-68
2023/10/28 01:33:43;;;;;;;4.45;0.90;;;;;;;11.12;87.58;99012.78;4175675;28;20486;-68
2023/10/28 01:35:45;;;;;;;4.70;0.75;;;;;;;11.12;87.66;99013.63;4167071;28;20464;-68
2023/10/28 01:37:50;;;;;;;2.47;0.90;;;;;;;11.11;88.03;99009.31;4170667;28;20044;-69
2023/10/28 01:39:53;;;;;;;1.83;0.70;;;;;;;11.18;87.43;99013.56;4170145;28;20446;-69
2023/10/28 01:41:56;;;;;;;6.38;0.70;;;;;;;11.13;87.64;99017.97;4163858;28;20427;-68
2023/10/28 01:43:59;;;;;;;1.10;0.60;;;;;;;11.16;87.35;99014.47;4171894;28;20083;-68
2023/10/28 01:46:01;;;;;;;0.90;0.47;;;;;;;11.20;86.88;99005.75;4173537;28;20036;-68
2023/10/28 01:48:05;;;;;;;1.10;0.60;;;;;;;11.28;86.69;99005.66;4170494;28;20035;-69
2023/10/28 01:50:11;;;;;;;4.07;0.75;;;;;;;11.24;85.79;99003.97;4168908;28;20049;-68
2023/10/28 01:52:15;;;;;;;4.60;0.90;;;;;;;11.26;85.38;99012.63;4148225;28;20284;-69
2023/10/28 01:54:19;;;;;;;5.70;0.93;;;;;;;11.33;85.16;99019.44;4176893;28;20499;-68
2023/10/28 01:56:22;;;;;;;3.80;0.88;;;;;;;11.37;84.65;99015.94;4165304;28;20443;-68
2023/10/28 01:58:26;;;;;;;3.17;1.00;;;;;;;11.42;84.55;99021.06;4194679;28;20064;-68
2023/10/28 02:00:31;;;;;;;2.60;0.85;;;;;;;11.39;84.38;99016.81;4176968;28;20036;-69
2023/10/28 02:02:34;;;;;;;3.17;0.68;;;;;;;11.33;84.23;99022.06;4149671;28;20139;-68
2023/10/28 02:04:37;;;;;;;2.55;0.57;;;;;;;11.31;83.24;99018.63;4175212;28;20086;-69
2023/10/28 02:06:40;;;;;;;3.72;0.85;;;;;;;11.39;82.98;99016.81;4172828;28;20086;-68
2023/10/28 02:08:43;;;;;;;2.85;0.50;;;;;;;11.39;82.72;99022.00;4167422;28;20038;-68
2023/10/28 02:10:48;;;;;;;2.33;0.60;;;;;;;11.37;82.87;99026.34;4174232;28;20045;-69
2023/10/28 02:12:51;;;;;;;1.90;0.70;;;;;;;11.41;82.04;99021.97;4170335;28;20059;-68
2023/10/28 02:14:53;;;;;;;1.83;0.52;;;;;;;11.31;82.05;99029.03;4171848;28;20124;-69
2023/10/28 02:16:56;;;;;;;0.73;0.47;;;;;;;11.29;81.74;99034.25;4173669;28;20041;-68
2023/10/28 02:18:59;;;;;;;2.25;0.60;;;;;;;11.34;82.33;99031.59;4172088;28;20053;-68
2023/10/28 02:21:02;;;;;;;2.13;0.60;;;;;;;11.38;81.95;99030.69;4172331;28;20116;-68
2023/10/28 02:23:08;;;;;;;0.40;0.40;;;;;;;11.40;81.71;99034.13;4164180;28;20040;-69
2023/10/28 02:25:11;;;;;;;2.38;0.70;;;;;;;11.43;82.38;99036.66;4175073;28;20049;-68
2023/10/28 02:27:15;;;;;;;2.10;0.50;;;;;;;11.43;82.05;99039.28;4162654;28;20550;-68
2023/10/28 02:29:18;;;;;;;2.15;0.60;;;;;;;11.38;82.03;99043.69;4171739;28;20124;-68
2023/10/28 02:31:20;;;;;;;2.45;0.80;;;;;;;11.38;82.33;99042.84;4177020;28;20072;-68
2023/10/28 02:33:23;;;;;;;1.45;0.40;;;;;;;11.31;82.05;99044.63;4157040;28;20119;-68
2023/10/28 02:35:26;;;;;;;1.70;0.73;;;;;;;11.43;81.87;99036.66;4168476;28;20037;-69
2023/10/28 02:37:29;;;;;;;1.00;0.57;;;;;;;11.41;81.76;99035.00;4161770;28;20045;-69
2023/10/28 02:39:32;;;;;;;3.95;0.77;;;;;;;11.34;82.05;99036.78;4163241;28;20041;-69
2023/10/28 02:41:35;;;;;;;0.77;0.55;;;;;;;11.42;81.73;99032.38;4172391;28;20037;-69
2023/10/28 02:43:40;;;;;;;0.90;0.57;;;;;;;11.40;81.11;99038.47;4162527;28;20130;-69
2023/10/28 02:45:43;;;;;;;3.03;0.93;;;;;;;11.39;82.14;99039.34;4169472;28;20034;-68
2023/10/28 02:47:46;;;;;;;2.92;0.80;;;;;;;11.45;81.91;99039.28;4190247;28;20028;-68
2023/10/28 02:49:48;;;;;;;0.60;0.60;;;;;;;11.40;82.16;99035.88;4170523;28;20064;-68
2023/10/28 02:51:52;;;;;;;0.95;0.63;;;;;;;11.45;81.91;99045.34;4161293;28;20034;-69
2023/10/28 02:53:54;;;;;;;1.08;0.40;;;;;;;11.47;81.08;99032.31;4167081;28;20045;-68
2023/10/28 02:55:57;;;;;;;2.15;0.63;;;;;;;11.41;81.39;99046.25;4178342;28;20036;-69
2023/10/28 02:58:00;;;;;;;1.25;0.80;;;;;;;11.35;82.24;99043.72;4176475;28;20522;-69
2023/10/28 03:00:08;;;;;;;2.60;1.08;;;;;;;11.42;81.43;99034.97;4166984;28;20034;-68
2023/10/28 03:02:10;;;;;;;1.27;0.70;;;;;;;11.40;82.01;99031.50;4188165;28;20431;-68
2023/10/28 03:04:13;;;;;;;5.32;0.70;;;;;;;11.52;81.30;99036.56;4169644;28;20115;-68
2023/10/28 03:06:16;;;;;;;1.92;0.77;;;;;;;11.37;82.04;99046.31;4175018;28;20522;-69
2023/10/28 03:08:20;;;;;;;3.00;0.77;;;;;;;11.42;82.10;99044.50;4175387;28;20107;-69
2023/10/28 03:10:23;;;;;;;3.38;0.93;;;;;;;11.39;81.85;99049.75;4147997;28;20041;-68
2023/10/28 03:12:25;;;;;;;0.60;0.50;;;;;;;11.37;82.79;99052.38;4170137;28;20037;-69
2023/10/28 03:14:28;;;;;;;5.82;1.00;;;;;;;11.47;81.68;99040.13;4177059;28;20032;-69
2023/10/28 03:16:32;;;;;;;5.13;1.27;;;;;;;11.43;82.27;99041.88;4175468;28;20114;-69
2023/10/28 03:18:35;;;;;;;1.67;0.77;;;;;;;11.43;82.32;99052.28;4164897;28;20116;-69
2023/10/28 03:20:37;;;;;;;1.40;0.80;;;;;;;11.47;82.01;99055.72;4169350;28;20136;-69
2023/10/28 03:22:39;;;;;;;6.63;1.05;;;;;;;11.52;82.00;99048.72;4172492;28;20090;-69
2023/10/28 03:24:42;;;;;;;2.67;1.20;;;;;;;11.54;82.04;99049.56;4165866;28;20462;-68
2023/10/28 03:26:45;;;;;;;2.65;1.05;;;;;;;11.60;80.75;99044.28;4176303;28;20116;-69
2023/10/28 03:28:49;;;;;;;1.30;0.85;;;;;;;11.56;80.92;99042.59;4175139;28;20045;-68
2023/10/28 03:30:53;;;;;;;3.80;1.45;;;;;;;11.45;81.83;99044.50;4163125;28;20057;-68
2023/10/28 03:32:57;;;;;;;3.27;1.20;;;;;;;11.47;81.48;99037.50;4171049;28;20487;-68
2023/10/28 03:35:02;;;;;;;2.10;0.90;;;;;;;11.45;81.68;99045.34;4176330;28;20361;-68
2023/10/28 03:37:08;;;;;;;5.93;1.45;;;;;;;11.37;82.36;99036.75;4173440;28;20532;-68
2023/10/28 03:39:11;;;;;;;4.25;1.10;;;;;;;11.39;82.44;99042.81;4169520;28;20079;-68
2023/10/28 03:41:16;;;;;;;4.72;1.10;;;;;;;11.45;82.39;99044.50;4170992;28;20048;-68
2023/10/28 03:43:18;;;;;;;3.58;1.10;;;;;;;11.41;82.17;99037.59;4170837;28;20042;-68
2023/10/28 03:45:21;;;;;;;4.50;1.23;;;;;;;11.41;82.52;99048.84;4173805;28;20132;-69
2023/10/28 03:47:25;;;;;;;5.28;1.05;;;;;;;11.40;82.67;99046.28;4173395;28;20037;-69
2023/10/28 03:49:29;;;;;;;5.97;1.70;;;;;;;11.38;82.49;99045.44;4172292;28;20033;-68
2023/10/28 03:51:31;;;;;;;4.68;1.30;;;;;;;11.35;82.81;99046.34;4172510;28;20399;-69
2023/10/28 03:53:35;;;;;;;6.57;1.33;;;;;;;11.45;82.26;99050.53;4172617;28;21171;-68
2023/10/28 03:55:38;;;;;;;7.25;1.70;;;;;;;11.33;82.93;99053.28;4172101;28;20406;-68
2023/10/28 03:57:40;;;;;;;5.95;1.50;;;;;;;11.32;83.04;99048.97;4168146;28;20060;-68
2023/10/28 03:59:46;;;;;;;5.97;1.83;;;;;;;11.28;82.59;99053.34;4164806;28;20030;-70
2023/10/28 04:01:49;;;;;;;7.75;3.50;;;;;;;11.26;83.34;99064.66;4172929;28;20094;-68
2023/10/28 04:03:52;;;;;;;6.03;1.55;;;;;;;11.33;82.48;99061.97;4175320;28;20418;-68
2023/10/28 04:05:56;;;;;;;5.22;1.60;;;;;;;11.35;82.91;99060.19;4174129;28;20033;-69
2023/10/28 04:07:59;;;;;;;5.45;1.17;;;;;;;11.31;82.79;99062.84;4175860;28;20037;-69
2023/10/28 04:10:07;;;;;;;6.82;1.48;;;;;;;11.32;82.40;99054.19;4178011;28;20376;-68
2023/10/28 04:12:10;;;;;;;5.18;1.40;;;;;;;11.28;83.31;99065.50;4175701;28;20052;-68
2023/10/28 04:14:13;;;;;;;5.85;1.58;;;;;;;11.47;82.05;99061.78;4174170;28;20091;-68
2023/10/28 04:16:16;;;;;;;7.95;2.17;;;;;;;11.49;81.93;99057.44;4176175;28;20430;-68
2023/10/28 04:18:19;;;;;;;7.07;1.40;;;;;;;11.37;82.54;99054.97;4177403;28;20056;-69
2023/10/28 04:20:22;;;;;;;3.63;1.55;;;;;;;11.36;82.07;99061.06;4176696;28;20040;-69
2023/10/28 04:22:28;;;;;;;4.15;1.38;;;;;;;11.50;82.05;99053.09;4175659;28;20044;-69
2023/10/28 04:24:31;;;;;;;11.50;1.50;;;;;;;11.37;82.88;99056.72;4178844;28;20045;-69
2023/10/28 04:26:34;;;;;;;5.03;1.50;;;;;;;11.44;82.77;99054.00;4177387;28;20036;-69
2023/10/28 04:28:38;;;;;;;6.82;2.03;;;;;;;11.47;82.49;99053.13;4176177;28;20537;-69
2023/10/28 04:30:41;;;;;;;9.10;1.67;;;;;;;11.34;82.54;99057.59;4181128;28;20041;-69
2023/10/28 04:32:44;;;;;;;6.07;1.80;;;;;;;11.34;82.55;99061.06;4173137;28;20057;-69
2023/10/28 04:34:46;;;;;;;4.63;1.80;;;;;;;11.40;82.74;99057.53;4181159;28;20056;-69
2023/10/28 04:36:59;;;;;;;6.20;1.58;;;;;;;11.33;82.62;99058.47;4167910;28;20036;-69
2023/10/28 04:39:03;;;;;;;4.45;1.38;;;;;;;11.31;82.45;99065.44;4174144;28;20059;-69
2023/10/28 04:41:08;;;;;;;6.85;1.67;;;;;;;11.23;83.81;99064.66;4172394;28;20040;-69
2023/10/28 04:43:11;;;;;;;5.13;1.08;;;;;;;11.28;83.57;99057.69;4172727;28;20065;-69
2023/10/28 04:45:13;;;;;;;6.20;1.33;;;;;;;11.28;83.56;99066.34;4173051;28;20036;-69
2023/10/28 04:47:16;;;;;;;6.43;1.38;;;;;;;11.31;83.25;99057.66;4176117;28;20567;-69
2023/10/28 04:49:19;;;;;;;5.80;1.92;;;;;;;11.35;83.36;99072.34;4176149;28;20447;-69
2023/10/28 04:51:22;;;;;;;3.80;1.20;;;;;;;11.37;83.18;99057.56;4175916;28;20044;-69
2023/10/28 04:53:25;;;;;;;5.68;1.20;;;;;;;11.38;82.84;99061.91;4174985;28;20410;-69
2023/10/28 04:55:29;;;;;;;4.10;1.23;;;;;;;11.47;82.37;99056.59;4174433;28;20055;-69
2023/10/28 04:57:31;;;;;;;4.70;1.30;;;;;;;11.38;82.53;99056.69;4172244;28;20059;-70
2023/10/28 04:59:34;;;;;;;5.40;1.65;;;;;;;11.37;82.12;99057.56;4180019;28;20560;-69
2023/10/28 05:01:37;;;;;;;10.93;1.88;;;;;;;11.35;82.88;99054.13;4174087;28;20039;-69
2023/10/28 05:03:40;;;;;;;6.30;1.25;;;;;;;11.26;82.91;99059.47;4176169;28;20132;-69
2023/10/28 05:05:43;;;;;;;5.72;1.50;;;;;;;11.24;82.97;99058.59;4179670;28;20036;-69
2023/10/28 05:07:46;;;;;;;4.57;1.52;;;;;;;11.16;83.01;99053.47;4175710;28;20037;-69
2023/10/28 05:09:49;;;;;;;10.35;1.17;;;;;;;11.12;82.96;99063.03;4155178;28;20512;-69
2023/10/28 05:11:54;;;;;;;5.72;1.38;;;;;;;11.18;82.38;99051.72;4173852;28;20041;-69
2023/10/28 05:13:57;;;;;;;5.47;1.75;;;;;;;11.25;82.82;99042.13;4169576;28;20045;-69
2023/10/28 05:16:00;;;;;;;6.55;1.80;;;;;;;11.14;82.43;99048.31;4175917;28;20484;-69
2023/10/28 05:18:03;;;;;;;3.72;1.65;;;;;;;11.20;82.29;99043.91;4177981;28;20490;-69
2023/10/28 05:20:08;;;;;;;6.22;2.03;;;;;;;11.17;82.51;99043.06;4182224;28;20064;-69
2023/10/28 05:22:11;;;;;;;7.40;1.48;;;;;;;11.18;82.29;99046.50;4176012;28;20498;-69
2023/10/28 05:24:13;;;;;;;5.50;1.23;;;;;;;11.13;81.79;99054.38;4172185;28;20041;-69
2023/10/28 05:26:16;;;;;;;4.50;1.38;;;;;;;11.15;82.09;99055.19;4178644;28;20036;-69
2023/10/28 05:28:21;;;;;;;6.38;1.45;;;;;;;11.09;82.32;99047.47;4176728;28;20040;-69
2023/10/28 05:30:24;;;;;;;4.60;1.40;;;;;;;10.98;82.69;99059.72;4178359;28;20150;-70
2023/10/28 05:32:26;;;;;;;6.78;1.52;;;;;;;11.06;82.29;99055.31;4174881;28;20434;-69
2023/10/28 05:34:29;;;;;;;5.68;1.58;;;;;;;11.03;82.98;99057.09;4179844;28;20029;-69
2023/10/28 05:36:32;;;;;;;4.60;1.35;;;;;;;11.06;83.11;99063.13;4178939;28;20396;-69
2023/10/28 05:38:35;;;;;;;4.30;1.70;;;;;;;11.02;82.08;99060.56;4168984;28;20085;-69
2023/10/28 05:40:38;;;;;;;6.55;1.70;;;;;;;10.94;82.97;99058.06;4169155;28;20403;-69
2023/10/28 05:42:41;;;;;;;4.80;1.60;;;;;;;10.97;83.07;99063.22;4176628;28;20065;-69
2023/10/28 05:44:45;;;;;;;5.07;2.28;;;;;;;10.99;82.81;99062.34;4174150;28;20100;-69
2023/10/28 05:46:48;;;;;;;4.53;1.48;;;;;;;11.06;83.14;99067.47;4178198;28;20033;-69
2023/10/28 05:48:51;;;;;;;6.95;1.60;;;;;;;11.10;82.99;99067.41;4177269;28;20076;-69
2023/10/28 05:50:55;;;;;;;5.18;1.50;;;;;;;11.14;82.52;99066.50;4177072;28;20124;-69
2023/10/28 05:52:58;;;;;;;7.95;2.15;;;;;;;11.16;82.70;99066.50;4177438;28;20033;-69
2023/10/28 05:55:02;;;;;;;8.00;1.48;;;;;;;11.18;82.75;99063.00;4173241;28;20140;-69
2023/10/28 05:57:06;;;;;;;7.57;1.50;;;;;;;11.29;82.20;99069.81;4167107;28;20049;-69
2023/10/28 05:59:08;;;;;;;7.70;1.42;;;;;;;11.23;82.16;99077.66;4172396;28;20123;-69
2023/10/28 06:01:13;;;;;;;6.75;1.83;;;;;;;11.20;81.81;99070.78;4169241;28;20053;-69
2023/10/28 06:03:16;;;;;;;5.82;1.50;;;;;;;11.19;82.16;99076.84;4172536;28;20041;-69
2023/10/28 06:05:19;;;;;;;3.30;1.10;;;;;;;11.36;81.53;99074.09;4175735;28;20076;-69
2023/10/28 06:07:21;;;;;;;6.25;1.63;;;;;;;11.30;81.55;99079.34;4173783;28;20033;-69
2023/10/28 06:09:24;;;;;;;5.47;1.38;;;;;;;11.38;81.11;99077.50;4177313;28;20542;-69
2023/10/28 06:11:27;;;;;;;6.03;1.40;;;;;;;11.29;81.13;99082.84;4173186;28;20040;-69
2023/10/28 06:13:30;;;;;;;3.97;1.33;;;;;;;11.24;81.51;99089.81;4173270;28;20037;-69
2023/10/28 06:15:33;;;;;;;5.50;1.60;;;;;;;11.25;81.77;99096.75;4175395;28;20041;-69
2023/10/28 06:17:36;;;;;;;8.82;1.58;;;;;;;11.33;81.01;99093.19;4173314;28;20043;-69
2023/10/28 06:20:30;;;;;;;3.47;1.40;;;;;;;11.48;80.86;99086.94;4170303;28;20061;-70
2023/10/28 06:22:32;;;;;;;10.75;1.58;;;;;;;11.33;80.70;99092.31;4168750;28;20045;-69
2023/10/28 06:24:35;;;;;;;8.00;1.67;;;;;;;11.29;80.64;99090.63;4167038;28;20037;-69
2023/10/28 06:26:38;;;;;;;5.70;1.90;;;;;;;11.26;81.27;99091.53;4175063;28;20119;-69
2023/10/28 06:28:40;;;;;;;6.85;1.35;;;;;;;11.35;80.80;99091.41;4166262;28;20124;-69
2023/10/28 06:30:48;;;;;;;6.93;1.88;;;;;;;11.35;80.85;99094.00;4165067;28;20045;-69
2023/10/28 06:32:52;;;;;;;8.88;1.48;;;;;;;11.31;80.25;99094.91;4166221;28;20041;-69
2023/10/28 06:34:55;;;;;;;7.95;1.60;;;;;;;11.36;80.57;99097.50;4172961;28;20060;-69
2023/10/28 06:36:58;;;;;;;9.15;2.67;;;;;;;11.34;80.37;99105.28;4172735;28;20029;-69
2023/10/28 06:39:02;;;;;;;4.53;1.50;;;;;;;11.27;80.43;99102.78;4171665;28;20426;-69
2023/10/28 06:41:05;;;;;;;9.57;2.00;;;;;;;11.24;80.23;99118.44;4177855;28;20072;-69
2023/10/28 06:43:08;;;;;;;7.60;2.20;;;;;;;11.19;80.09;99110.69;4176251;28;20037;-69
2023/10/28 06:45:11;;;;;;;3.25;1.50;;;;;;;11.23;80.20;99122.78;4174322;28;20045;-69
2023/10/28 06:47:14;;;;;;;6.03;1.52;;;;;;;11.09;80.55;99124.66;4172739;28;20539;-69
2023/10/28 06:49:18;;;;;;;6.38;1.67;;;;;;;11.18;80.30;99127.16;4167095;28;20041;-69
2023/10/28 06:51:23;;;;;;;6.32;1.70;;;;;;;11.20;80.80;99132.34;4176156;28;20091;-70
2023/10/28 06:53:26;;;;;;;7.35;1.85;;;;;;;11.26;80.11;99127.94;4174498;28;20130;-69
2023/10/28 06:55:27;;;;;;;4.28;1.10;;;;;;;11.26;79.95;99135.75;4168936;28;20049;-68
2023/10/28 06:57:32;;;;;;;3.30;1.20;;;;;;;11.22;79.93;99146.22;4169624;28;20510;-69
2023/10/28 06:59:35;;;;;;;5.80;1.70;;;;;;;11.18;79.61;99145.34;4166363;28;20041;-69
2023/10/28 07:01:39;;;;;;;6.93;1.50;;;;;;;11.21;79.84;99144.47;4175426;28;20041;-68
2023/10/28 07:03:42;;;;;;;9.85;2.28;;;;;;;11.31;80.72;99146.97;4173598;28;20102;-67
2023/10/28 07:05:47;;;;;;;6.22;1.85;;;;;;;11.37;79.93;99146.03;4173541;28;20510;-68
2023/10/28 07:07:50;;;;;;;4.97;1.40;;;;;;;11.38;80.34;99147.78;4176859;28;20474;-70
2023/10/28 07:09:52;;;;;;;3.75;1.50;;;;;;;11.45;80.18;99156.38;4174302;28;20074;-69
2023/10/28 07:11:55;;;;;;;4.90;1.40;;;;;;;11.40;80.35;99151.22;4168548;28;20061;-70
2023/10/28 07:13:58;;;;;;;6.15;1.65;;;;;;;11.52;79.51;99150.22;4168326;28;20045;-73
2023/10/28 07:16:02;;;;;;;2.25;1.05;;;;;;;11.49;79.63;99163.25;4173183;28;20502;-73
2023/10/28 07:18:06;;;;;;;7.38;1.70;;;;;;;11.30;79.89;99155.66;4171650;28;20375;-73
2023/10/28 07:20:09;;;;;;;9.60;1.92;;;;;;;11.43;79.79;99163.34;4168444;28;20048;-72
2023/10/28 07:22:12;;;;;;;2.33;1.15;;;;;;;11.48;79.76;99158.97;4168663;28;20080;-72
2023/10/28 07:24:15;;;;;;;10.00;1.50;;;;;;;11.60;81.51;99156.19;4166208;28;20041;-72
2023/10/28 07:26:18;;;;;;;5.57;1.48;;;;;;;11.63;81.03;99169.19;4169117;28;20119;-59
2023/10/28 07:28:21;;;;;;;3.45;1.33;;;;;;;11.61;80.48;99165.75;4170996;28;20060;-69
2023/10/28 07:30:24;;;;;;;3.15;1.20;;;;;;;11.67;79.75;99167.44;4166592;28;20045;-69
2023/10/28 07:32:27;;;;;;;6.07;1.50;;;;;;;11.67;79.26;99170.03;4175031;28;20048;-70
2023/10/28 07:34:30;;;;;;;7.82;1.63;;;;;;;11.73;78.89;99163.91;4171536;28;20048;-70
2023/10/28 07:36:34;;;;;;;3.47;1.10;;;;;;;11.73;79.43;99169.09;4173741;28;20037;-70
2023/10/28 07:38:40;;;;;;;4.47;1.40;;;;;;;11.76;79.37;99171.66;4175281;28;20033;-69
2023/10/28 07:40:44;;;;;;;4.00;1.70;;;;;;;11.70;78.42;99172.59;4170703;28;20044;-70
2023/10/28 07:42:47;;;;;;;7.47;1.73;;;;;;;11.64;78.10;99181.31;4172448;28;20060;-70
2023/10/28 07:44:51;;;;;;;6.20;1.50;;;;;;;11.65;78.72;99182.19;4172670;28;20499;-70
2023/10/28 07:46:54;;;;;;;6.72;1.67;;;;;;;11.66;79.42;99183.91;4165438;28;20047;-70
2023/10/28 07:48:56;;;;;;;4.38;1.42;;;;;;;11.58;78.99;99186.59;4169801;28;20443;-71
2023/10/28 07:51:24;;;;;;;5.55;1.73;;;;;;;11.66;79.55;99194.31;4178304;28;20041;-71
2023/10/28 07:53:28;;;;;;;3.70;1.13;;;;;;;11.62;78.97;99198.72;4174525;28;20536;-68
2023/10/28 07:55:33;;;;;;;2.97;1.38;;;;;;;11.62;79.11;99203.03;4168524;28;20478;-68
2023/10/28 07:57:36;;;;;;;4.20;1.70;;;;;;;11.63;78.90;99200.41;4168128;28;20419;-69
2023/10/28 07:59:39;;;;;;;4.90;1.27;;;;;;;11.68;78.98;99198.66;4162555;28;20785;-69
2023/10/28 08:01:42;;;;;;;6.82;2.05;;;;;;;11.82;78.75;99206.28;4171706;28;20401;-68
2023/10/28 08:03:46;;;;;;;4.88;1.25;;;;;;;11.77;78.64;99199.41;4151737;28;20072;-68
2023/10/28 08:05:50;;;;;;;7.13;1.60;;;;;;;11.70;78.71;99206.44;4170790;28;20068;-68
2023/10/28 08:07:53;;;;;;;5.15;1.30;;;;;;;11.68;78.70;99208.19;4164643;28;20057;-69
2023/10/28 08:09:57;;;;;;;5.63;1.65;;;;;;;11.61;79.45;99211.72;4169946;28;20337;-69
2023/10/28 08:12:03;;;;;;;3.28;1.25;;;;;;;11.70;79.55;99211.66;4176613;28;20045;-68
2023/10/28 08:14:06;;;;;;;4.13;1.27;;;;;;;11.79;79.55;99216.75;4172430;28;20335;-68
2023/10/28 08:16:11;;;;;;;7.15;1.60;;;;;;;11.79;79.33;99224.56;4174784;28;20128;-68
2023/10/28 08:18:15;;;;;;;4.47;1.42;;;;;;;11.81;79.22;99225.41;4176498;28;20064;-69
2023/10/28 08:20:18;;;;;;;5.65;1.55;;;;;;;11.84;79.77;99221.91;4177808;28;20032;-68
2023/10/28 08:22:21;;;;;;;4.07;1.30;;;;;;;11.84;79.66;99229.72;4177495;28;20416;-68
2023/10/28 08:24:24;;;;;;;8.98;1.77;;;;;;;11.88;79.50;99221.88;4174898;28;20124;-68
2023/10/28 08:26:27;;;;;;;7.10;2.13;;;;;;;11.86;79.67;99234.03;4178438;28;20037;-68
2023/10/28 08:28:31;;;;;;;5.03;1.70;;;;;;;12.01;79.16;99234.78;4172489;28;20033;-68
2023/10/28 08:30:35;;;;;;;6.32;1.60;;;;;;;12.01;78.77;99237.38;4169978;28;20060;-68
2023/10/28 08:32:38;;;;;;;4.90;1.35;;;;;;;12.00;78.64;99235.66;4172240;28;20037;-68
2023/10/28 08:34:43;;;;;;;5.97;1.13;;;;;;;11.97;78.60;99236.56;4173466;28;20523;-69
2023/10/28 08:36:45;;;;;;;3.38;1.50;;;;;;;11.94;78.56;99230.50;4171289;28;20037;-69
2023/10/28 08:38:49;;;;;;;4.43;1.73;;;;;;;11.96;78.29;99245.25;4174791;28;20533;-69
2023/10/28 08:40:52;;;;;;;12.25;1.88;;;;;;;11.99;77.94;99233.94;4167247;28;20124;-69
2023/10/28 08:42:56;;;;;;;7.55;1.60;;;;;;;12.13;77.61;99233.75;4169097;28;20052;-69
2023/10/28 08:45:03;;;;;;;4.88;1.70;;;;;;;12.25;77.52;99241.44;4169217;28;20555;-69
2023/10/28 08:47:07;;;;;;;4.03;1.33;;;;;;;12.22;77.82;99241.47;4165033;28;20041;-69
2023/10/28 08:49:15;;;;;;;5.18;1.30;;;;;;;12.19;77.10;99246.72;4162147;28;20120;-69
2023/10/28 08:51:18;;;;;;;5.00;1.45;;;;;;;12.17;77.39;99245.88;4163844;28;20046;-68
2023/10/28 08:53:22;;;;;;;4.38;1.38;;;;;;;12.18;77.61;99239.78;4166325;28;20064;-68
2023/10/28 08:55:25;;;;;;;3.30;1.40;;;;;;;12.26;77.82;99245.75;4176285;28;20041;-68
2023/10/28 08:57:29;;;;;;;10.07;1.90;;;;;;;12.31;77.24;99240.47;4168887;28;20510;-68
2023/10/28 08:59:32;;;;;;;2.22;1.10;;;;;;;12.38;77.31;99242.13;4165642;28;20078;-68
2023/10/28 09:01:37;;;;;;;7.25;2.10;;;;;;;12.43;77.38;99242.09;4176786;28;20044;-68
2023/10/28 09:03:43;;;;;;;4.60;1.25;;;;;;;12.51;77.43;99228.06;4166079;28;20398;-68
2023/10/28 09:05:47;;;;;;;3.28;1.27;;;;;;;12.55;76.81;99232.34;4166468;28;20475;-68
2023/10/28 09:07:51;;;;;;;7.97;2.67;;;;;;;12.53;77.24;99235.88;4168839;28;20044;-68
2023/10/28 09:09:57;;;;;;;5.40;2.03;;;;;;;12.61;77.30;99239.22;4173900;28;20033;-69
2023/10/28 09:12:03;;;;;;;5.75;1.88;;;;;;;12.67;76.99;99238.28;4176457;28;20532;-69
2023/10/28 09:14:07;;;;;;;5.45;1.67;;;;;;;12.72;76.75;99241.69;4175894;28;20036;-68
2023/10/28 09:16:10;;;;;;;4.72;1.27;;;;;;;12.72;76.43;99239.94;4165154;28;20048;-68
2023/10/28 09:18:14;;;;;;;10.38;2.63;;;;;;;12.81;75.89;99231.13;4165414;28;20092;-68
2023/10/28 09:20:17;;;;;;;7.05;1.95;;;;;;;12.88;75.83;99232.75;4171789;28;20076;-68
2023/10/28 09:22:21;;;;;;;4.18;1.40;;;;;;;12.95;76.02;99235.25;4168460;28;20052;-68
2023/10/28 09:24:23;;;;;;;3.67;1.17;;;;;;;13.05;75.91;99239.44;4170414;28;20045;-68
2023/10/28 09:26:25;;;;;;;6.15;1.45;;;;;;;13.17;75.09;99243.63;4167372;28;20044;-68
2023/10/28 09:28:27;;;;;;;6.85;1.58;;;;;;;13.31;74.57;99239.03;4175764;28;20041;-68
2023/10/28 09:30:30;;;;;;;8.40;1.50;;;;;;;13.29;74.51;99243.44;4171134;28;20044;-69
2023/10/28 09:32:34;;;;;;;8.10;1.67;;;;;;;13.27;74.36;99243.47;4169895;28;20029;-68
2023/10/28 09:34:39;;;;;;;5.00;1.52;;;;;;;13.24;73.12;99240.91;4172532;28;20045;-68
2023/10/28 09:36:42;;;;;;;7.22;1.77;;;;;;;13.12;73.92;99241.09;4170319;28;20059;-68
2023/10/28 09:38:46;;;;;;;5.55;1.60;;;;;;;13.12;74.17;99248.91;4175718;28;20120;-68
2023/10/28 09:40:49;;;;;;;8.43;1.65;;;;;;;13.28;74.11;99253.00;4177515;28;20474;-68
2023/10/28 09:42:52;;;;;;;6.22;1.40;;;;;;;13.46;73.61;99251.00;4172261;28;20033;-68